sensor_id;sensor_type;location;lat;lon;timestamp;P1;durP1;ratioP1;P2;durP2;ratioP2
28353;SDS011;15603;50.878;8.036;2023-08-06T00:02:26;2.25;;;1.27;;
28353;SDS011;15603;50.878;8.036;2023-08-06T00:04:53;3.55;;;1.30;;
28353;SDS011;15603;50.878;8.036;2023-08-06T00:07:20;1.67;;;1.20;;
28353;SDS011;15603;50.878;8.036;2023-08-06T00:09:47;1.65;;;1.40;;
28353;SDS011;15603;50.878;8.036;2023-08-06T00:12:15;2.08;;;1.20;;
28353;SDS011;15603;50.878;8.036;2023-08-06T00:14:42;1.52;;;1.23;;
28353;SDS011;15603;50.878;8.036;2023-08-06T00:17:09;1.75;;;1.40;;
28353;SDS011;15603;50.878;8.036;2023-08-06T00:19:36;3.08;;;1.42;;
28353;SDS011;15603;50.878;8.036;2023-08-06T00:22:04;2.88;;;1.92;;
28353;SDS011;15603;50.878;8.036;2023-08-06T00:24:31;1.73;;;1.20;;
28353;SDS011;15603;50.878;8.036;2023-08-06T00:26:58;2.22;;;1.40;;
28353;SDS011;15603;50.878;8.036;2023-08-06T00:29:25;5.57;;;1.60;;
28353;SDS011;15603;50.878;8.036;2023-08-06T00:31:52;2.13;;;1.45;;
28353;SDS011;15603;50.878;8.036;2023-08-06T00:34:20;2.92;;;1.65;;
28353;SDS011;15603;50.878;8.036;2023-08-06T00:36:47;2.15;;;1.40;;
28353;SDS011;15603;50.878;8.036;2023-08-06T00:39:14;3.30;;;1.50;;
28353;SDS011;15603;50.878;8.036;2023-08-06T00:41:41;2.63;;;1.52;;
28353;SDS011;15603;50.878;8.036;2023-08-06T00:44:09;2.95;;;1.60;;
28353;SDS011;15603;50.878;8.036;2023-08-06T00:46:36;1.48;;;1.13;;
28353;SDS011;15603;50.878;8.036;2023-08-06T00:49:03;2.47;;;1.65;;
28353;SDS011;15603;50.878;8.036;2023-08-06T00:51:31;2.13;;;1.30;;
28353;SDS011;15603;50.878;8.036;2023-08-06T00:53:59;6.05;;;1.63;;
28353;SDS011;15603;50.878;8.036;2023-08-06T00:56:26;2.40;;;1.13;;
28353;SDS011;15603;50.878;8.036;2023-08-06T00:58:54;2.72;;;1.35;;
28353;SDS011;15603;50.878;8.036;2023-08-06T01:01:21;2.17;;;1.27;;
28353;SDS011;15603;50.878;8.036;2023-08-06T01:03:48;1.40;;;1.15;;
28353;SDS011;15603;50.878;8.036;2023-08-06T01:06:16;6.57;;;1.98;;
28353;SDS011;15603;50.878;8.036;2023-08-06T01:09:01;2.47;;;1.73;;
28353;SDS011;15603;50.878;8.036;2023-08-06T01:12:05;4.40;;;1.70;;
28353;SDS011;15603;50.878;8.036;2023-08-06T01:14:56;3.63;;;1.98;;
28353;SDS011;15603;50.878;8.036;2023-08-06T01:17:29;2.72;;;1.75;;
28353;SDS011;15603;50.878;8.036;2023-08-06T01:19:57;5.15;;;2.13;;
28353;SDS011;15603;50.878;8.036;2023-08-06T01:22:24;4.32;;;1.90;;
28353;SDS011;15603;50.878;8.036;2023-08-06T01:24:51;3.55;;;1.77;;
28353;SDS011;15603;50.878;8.036;2023-08-06T01:27:53;6.22;;;1.88;;
28353;SDS011;15603;50.878;8.036;2023-08-06T01:30:23;2.95;;;1.70;;
28353;SDS011;15603;50.878;8.036;2023-08-06T01:32:56;2.67;;;1.75;;
28353;SDS011;15603;50.878;8.036;2023-08-06T01:35:27;5.68;;;1.83;;
28353;SDS011;15603;50.878;8.036;2023-08-06T01:37:59;2.53;;;1.73;;
28353;SDS011;15603;50.878;8.036;2023-08-06T01:40:27;4.63;;;1.77;;
28353;SDS011;15603;50.878;8.036;2023-08-06T01:42:56;1.95;;;1.75;;
28353;SDS011;15603;50.878;8.036;2023-08-06T01:45:23;6.32;;;1.92;;
28353;SDS011;15603;50.878;8.036;2023-08-06T01:47:50;2.80;;;1.83;;
28353;SDS011;15603;50.878;8.036;2023-08-06T01:50:18;3.92;;;1.77;;
28353;SDS011;15603;50.878;8.036;2023-08-06T01:52:45;2.67;;;1.75;;
28353;SDS011;15603;50.878;8.036;2023-08-06T01:55:12;2.88;;;1.85;;
28353;SDS011;15603;50.878;8.036;2023-08-06T01:57:39;2.90;;;1.40;;
28353;SDS011;15603;50.878;8.036;2023-08-06T02:00:06;2.42;;;1.55;;
28353;SDS011;15603;50.878;8.036;2023-08-06T02:02:38;2.58;;;1.58;;
28353;SDS011;15603;50.878;8.036;2023-08-06T02:05:07;2.55;;;1.63;;
28353;SDS011;15603;50.878;8.036;2023-08-06T02:07:34;3.35;;;1.88;;
28353;SDS011;15603;50.878;8.036;2023-08-06T02:10:02;1.75;;;1.55;;
28353;SDS011;15603;50.878;8.036;2023-08-06T02:12:30;2.83;;;1.80;;
28353;SDS011;15603;50.878;8.036;2023-08-06T02:14:57;3.58;;;1.85;;
28353;SDS011;15603;50.878;8.036;2023-08-06T02:17:24;1.40;;;1.30;;
28353;SDS011;15603;50.878;8.036;2023-08-06T02:19:51;2.45;;;1.95;;
28353;SDS011;15603;50.878;8.036;2023-08-06T02:22:18;6.35;;;1.80;;
28353;SDS011;15603;50.878;8.036;2023-08-06T02:24:45;3.40;;;1.58;;
28353;SDS011;15603;50.878;8.036;2023-08-06T02:27:12;2.15;;;1.55;;
28353;SDS011;15603;50.878;8.036;2023-08-06T02:29:40;6.32;;;3.25;;
28353;SDS011;15603;50.878;8.036;2023-08-06T02:32:08;2.30;;;1.63;;
28353;SDS011;15603;50.878;8.036;2023-08-06T02:34:35;2.90;;;1.88;;
28353;SDS011;15603;50.878;8.036;2023-08-06T02:37:02;4.28;;;1.27;;
28353;SDS011;15603;50.878;8.036;2023-08-06T02:39:29;3.17;;;1.42;;
28353;SDS011;15603;50.878;8.036;2023-08-06T02:41:58;3.08;;;1.60;;
28353;SDS011;15603;50.878;8.036;2023-08-06T02:44:28;2.90;;;1.67;;
28353;SDS011;15603;50.878;8.036;2023-08-06T02:46:55;2.58;;;1.65;;
28353;SDS011;15603;50.878;8.036;2023-08-06T02:49:22;3.90;;;1.80;;
28353;SDS011;15603;50.878;8.036;2023-08-06T02:51:50;2.75;;;1.75;;
28353;SDS011;15603;50.878;8.036;2023-08-06T02:54:17;2.60;;;1.98;;
28353;SDS011;15603;50.878;8.036;2023-08-06T02:56:45;9.57;;;1.85;;
28353;SDS011;15603;50.878;8.036;2023-08-06T02:59:23;4.18;;;1.65;;
28353;SDS011;15603;50.878;8.036;2023-08-06T03:02:00;2.78;;;1.58;;
28353;SDS011;15603;50.878;8.036;2023-08-06T03:04:36;4.28;;;1.70;;
28353;SDS011;15603;50.878;8.036;2023-08-06T03:07:03;2.83;;;1.80;;
28353;SDS011;15603;50.878;8.036;2023-08-06T03:09:38;3.15;;;1.85;;
28353;SDS011;15603;50.878;8.036;2023-08-06T03:12:06;2.35;;;1.58;;
28353;SDS011;15603;50.878;8.036;2023-08-06T03:14:33;3.97;;;2.00;;
28353;SDS011;15603;50.878;8.036;2023-08-06T03:17:01;2.50;;;1.48;;
28353;SDS011;15603;50.878;8.036;2023-08-06T03:19:29;5.63;;;2.08;;
28353;SDS011;15603;50.878;8.036;2023-08-06T03:21:56;3.15;;;2.00;;
28353;SDS011;15603;50.878;8.036;2023-08-06T03:24:24;1.92;;;1.50;;
28353;SDS011;15603;50.878;8.036;2023-08-06T03:26:51;2.47;;;1.75;;
28353;SDS011;15603;50.878;8.036;2023-08-06T03:29:18;6.47;;;2.08;;
28353;SDS011;15603;50.878;8.036;2023-08-06T03:31:46;3.47;;;1.80;;
28353;SDS011;15603;50.878;8.036;2023-08-06T03:34:15;3.78;;;1.80;;
28353;SDS011;15603;50.878;8.036;2023-08-06T03:36:42;2.55;;;1.70;;
28353;SDS011;15603;50.878;8.036;2023-08-06T03:39:09;2.92;;;1.67;;
28353;SDS011;15603;50.878;8.036;2023-08-06T03:41:37;2.80;;;1.95;;
28353;SDS011;15603;50.878;8.036;2023-08-06T03:44:04;4.88;;;2.15;;
28353;SDS011;15603;50.878;8.036;2023-08-06T03:46:31;1.67;;;1.50;;
28353;SDS011;15603;50.878;8.036;2023-08-06T03:49:04;6.15;;;1.67;;
28353;SDS011;15603;50.878;8.036;2023-08-06T03:51:31;5.10;;;1.45;;
28353;SDS011;15603;50.878;8.036;2023-08-06T03:53:59;1.95;;;1.70;;
28353;SDS011;15603;50.878;8.036;2023-08-06T03:56:26;3.00;;;1.98;;
28353;SDS011;15603;50.878;8.036;2023-08-06T03:58:54;5.10;;;1.80;;
28353;SDS011;15603;50.878;8.036;2023-08-06T04:01:21;2.05;;;1.63;;
28353;SDS011;15603;50.878;8.036;2023-08-06T04:03:48;3.38;;;1.95;;
28353;SDS011;15603;50.878;8.036;2023-08-06T04:06:16;3.60;;;1.70;;
28353;SDS011;15603;50.878;8.036;2023-08-06T04:08:43;5.13;;;1.85;;
28353;SDS011;15603;50.878;8.036;2023-08-06T04:11:10;1.58;;;1.48;;
28353;SDS011;15603;50.878;8.036;2023-08-06T04:13:37;2.05;;;1.45;;
28353;SDS011;15603;50.878;8.036;2023-08-06T04:16:04;4.47;;;1.70;;
28353;SDS011;15603;50.878;8.036;2023-08-06T04:18:32;2.90;;;2.22;;
28353;SDS011;15603;50.878;8.036;2023-08-06T04:21:01;1.85;;;1.40;;
28353;SDS011;15603;50.878;8.036;2023-08-06T04:23:29;6.50;;;1.58;;
28353;SDS011;15603;50.878;8.036;2023-08-06T04:26:00;4.28;;;1.77;;
28353;SDS011;15603;50.878;8.036;2023-08-06T04:28:31;3.60;;;2.08;;
28353;SDS011;15603;50.878;8.036;2023-08-06T04:30:59;4.55;;;1.98;;
28353;SDS011;15603;50.878;8.036;2023-08-06T04:33:28;2.60;;;1.77;;
28353;SDS011;15603;50.878;8.036;2023-08-06T04:35:57;6.25;;;1.83;;
28353;SDS011;15603;50.878;8.036;2023-08-06T04:38:26;2.55;;;1.65;;
28353;SDS011;15603;50.878;8.036;2023-08-06T04:40:54;2.08;;;1.58;;
28353;SDS011;15603;50.878;8.036;2023-08-06T04:43:22;4.07;;;1.30;;
28353;SDS011;15603;50.878;8.036;2023-08-06T04:45:51;4.95;;;1.60;;
28353;SDS011;15603;50.878;8.036;2023-08-06T04:48:20;3.45;;;2.05;;
28353;SDS011;15603;50.878;8.036;2023-08-06T04:50:47;2.75;;;1.73;;
28353;SDS011;15603;50.878;8.036;2023-08-06T04:53:16;1.70;;;1.60;;
28353;SDS011;15603;50.878;8.036;2023-08-06T04:55:43;3.08;;;1.85;;
28353;SDS011;15603;50.878;8.036;2023-08-06T04:58:10;4.18;;;1.70;;
28353;SDS011;15603;50.878;8.036;2023-08-06T05:00:37;3.53;;;2.08;;
28353;SDS011;15603;50.878;8.036;2023-08-06T05:03:05;2.47;;;1.90;;
28353;SDS011;15603;50.878;8.036;2023-08-06T05:05:33;7.15;;;1.60;;
28353;SDS011;15603;50.878;8.036;2023-08-06T05:08:01;1.90;;;1.52;;
28353;SDS011;15603;50.878;8.036;2023-08-06T05:10:28;3.33;;;1.85;;
28353;SDS011;15603;50.878;8.036;2023-08-06T05:12:55;1.63;;;1.33;;
28353;SDS011;15603;50.878;8.036;2023-08-06T05:15:23;4.53;;;1.60;;
28353;SDS011;15603;50.878;8.036;2023-08-06T05:17:52;2.30;;;1.73;;
28353;SDS011;15603;50.878;8.036;2023-08-06T05:20:20;5.47;;;1.55;;
28353;SDS011;15603;50.878;8.036;2023-08-06T05:22:47;3.65;;;1.80;;
28353;SDS011;15603;50.878;8.036;2023-08-06T05:25:14;7.40;;;1.35;;
28353;SDS011;15603;50.878;8.036;2023-08-06T05:27:41;2.78;;;1.40;;
28353;SDS011;15603;50.878;8.036;2023-08-06T05:30:09;2.63;;;1.50;;
28353;SDS011;15603;50.878;8.036;2023-08-06T05:32:37;8.93;;;1.70;;
28353;SDS011;15603;50.878;8.036;2023-08-06T05:35:04;3.80;;;1.65;;
28353;SDS011;15603;50.878;8.036;2023-08-06T05:37:31;3.50;;;1.55;;
28353;SDS011;15603;50.878;8.036;2023-08-06T05:39:58;1.85;;;1.40;;
28353;SDS011;15603;50.878;8.036;2023-08-06T05:42:26;3.42;;;1.40;;
28353;SDS011;15603;50.878;8.036;2023-08-06T05:44:53;2.58;;;1.08;;
28353;SDS011;15603;50.878;8.036;2023-08-06T05:47:20;0.85;;;0.80;;
28353;SDS011;15603;50.878;8.036;2023-08-06T05:49:47;2.25;;;1.10;;
28353;SDS011;15603;50.878;8.036;2023-08-06T05:52:14;2.15;;;0.80;;
28353;SDS011;15603;50.878;8.036;2023-08-06T05:54:41;4.10;;;1.90;;
28353;SDS011;15603;50.878;8.036;2023-08-06T05:57:08;2.05;;;1.35;;
28353;SDS011;15603;50.878;8.036;2023-08-06T05:59:35;2.17;;;1.42;;
28353;SDS011;15603;50.878;8.036;2023-08-06T06:02:03;2.05;;;1.33;;
28353;SDS011;15603;50.878;8.036;2023-08-06T06:04:30;2.03;;;1.33;;
28353;SDS011;15603;50.878;8.036;2023-08-06T06:06:57;2.28;;;1.00;;
28353;SDS011;15603;50.878;8.036;2023-08-06T06:09:24;3.00;;;0.85;;
28353;SDS011;15603;50.878;8.036;2023-08-06T06:11:51;2.05;;;0.90;;
28353;SDS011;15603;50.878;8.036;2023-08-06T06:14:19;0.80;;;0.70;;
28353;SDS011;15603;50.878;8.036;2023-08-06T06:16:46;1.20;;;0.70;;
28353;SDS011;15603;50.878;8.036;2023-08-06T06:19:13;1.25;;;0.70;;
28353;SDS011;15603;50.878;8.036;2023-08-06T06:21:40;4.05;;;1.00;;
28353;SDS011;15603;50.878;8.036;2023-08-06T06:24:07;1.17;;;0.82;;
28353;SDS011;15603;50.878;8.036;2023-08-06T06:26:35;3.13;;;1.00;;
28353;SDS011;15603;50.878;8.036;2023-08-06T06:29:02;4.07;;;0.90;;
28353;SDS011;15603;50.878;8.036;2023-08-06T06:31:29;0.47;;;0.47;;
28353;SDS011;15603;50.878;8.036;2023-08-06T06:33:56;3.50;;;0.52;;
28353;SDS011;15603;50.878;8.036;2023-08-06T06:36:24;0.70;;;0.55;;
28353;SDS011;15603;50.878;8.036;2023-08-06T06:38:51;3.33;;;0.93;;
28353;SDS011;15603;50.878;8.036;2023-08-06T06:41:18;5.75;;;0.70;;
28353;SDS011;15603;50.878;8.036;2023-08-06T06:43:45;1.65;;;0.50;;
28353;SDS011;15603;50.878;8.036;2023-08-06T06:46:12;2.58;;;0.52;;
28353;SDS011;15603;50.878;8.036;2023-08-06T06:48:39;2.25;;;0.60;;
28353;SDS011;15603;50.878;8.036;2023-08-06T06:51:06;0.70;;;0.50;;
28353;SDS011;15603;50.878;8.036;2023-08-06T06:53:34;3.03;;;0.40;;
28353;SDS011;15603;50.878;8.036;2023-08-06T06:56:01;1.05;;;0.40;;
28353;SDS011;15603;50.878;8.036;2023-08-06T06:58:33;0.70;;;0.35;;
28353;SDS011;15603;50.878;8.036;2023-08-06T07:01:00;0.93;;;0.35;;
28353;SDS011;15603;50.878;8.036;2023-08-06T07:03:27;4.28;;;0.40;;
28353;SDS011;15603;50.878;8.036;2023-08-06T07:05:58;0.10;;;0.10;;
28353;SDS011;15603;50.878;8.036;2023-08-06T07:08:26;1.00;;;0.20;;
28353;SDS011;15603;50.878;8.036;2023-08-06T07:10:59;1.00;;;0.10;;
28353;SDS011;15603;50.878;8.036;2023-08-06T07:13:28;0.20;;;0.17;;
28353;SDS011;15603;50.878;8.036;2023-08-06T07:15:56;1.00;;;0.20;;
28353;SDS011;15603;50.878;8.036;2023-08-06T07:18:23;3.20;;;0.25;;
28353;SDS011;15603;50.878;8.036;2023-08-06T07:20:51;0.20;;;0.20;;
28353;SDS011;15603;50.878;8.036;2023-08-06T07:23:22;0.43;;;0.30;;
28353;SDS011;15603;50.878;8.036;2023-08-06T07:25:52;0.15;;;0.10;;
28353;SDS011;15603;50.878;8.036;2023-08-06T07:28:19;0.22;;;0.10;;
28353;SDS011;15603;50.878;8.036;2023-08-06T07:30:46;0.10;;;0.10;;
28353;SDS011;15603;50.878;8.036;2023-08-06T07:33:14;0.50;;;0.17;;
28353;SDS011;15603;50.878;8.036;2023-08-06T07:35:41;0.10;;;0.00;;
28353;SDS011;15603;50.878;8.036;2023-08-06T07:38:10;0.95;;;0.10;;
28353;SDS011;15603;50.878;8.036;2023-08-06T07:40:37;0.28;;;0.10;;
28353;SDS011;15603;50.878;8.036;2023-08-06T07:43:05;1.58;;;0.20;;
28353;SDS011;15603;50.878;8.036;2023-08-06T07:45:35;0.25;;;0.17;;
28353;SDS011;15603;50.878;8.036;2023-08-06T07:48:03;0.20;;;0.10;;
28353;SDS011;15603;50.878;8.036;2023-08-06T07:50:30;0.52;;;0.10;;
28353;SDS011;15603;50.878;8.036;2023-08-06T07:52:58;0.13;;;0.10;;
28353;SDS011;15603;50.878;8.036;2023-08-06T07:55:25;0.22;;;0.20;;
28353;SDS011;15603;50.878;8.036;2023-08-06T07:57:53;0.10;;;0.00;;
28353;SDS011;15603;50.878;8.036;2023-08-06T08:00:21;0.50;;;0.10;;
28353;SDS011;15603;50.878;8.036;2023-08-06T08:02:48;4.68;;;0.20;;
28353;SDS011;15603;50.878;8.036;2023-08-06T08:05:17;0.10;;;0.10;;
28353;SDS011;15603;50.878;8.036;2023-08-06T08:07:44;1.08;;;0.10;;
28353;SDS011;15603;50.878;8.036;2023-08-06T08:10:11;0.10;;;0.10;;
28353;SDS011;15603;50.878;8.036;2023-08-06T08:12:38;0.28;;;0.10;;
28353;SDS011;15603;50.878;8.036;2023-08-06T08:15:06;1.17;;;0.20;;
28353;SDS011;15603;50.878;8.036;2023-08-06T08:17:33;0.45;;;0.10;;
28353;SDS011;15603;50.878;8.036;2023-08-06T08:20:01;1.40;;;0.30;;
28353;SDS011;15603;50.878;8.036;2023-08-06T08:22:29;0.10;;;0.10;;
28353;SDS011;15603;50.878;8.036;2023-08-06T08:24:56;0.10;;;0.10;;
28353;SDS011;15603;50.878;8.036;2023-08-06T08:27:23;1.45;;;0.20;;
28353;SDS011;15603;50.878;8.036;2023-08-06T08:29:50;1.35;;;0.20;;
28353;SDS011;15603;50.878;8.036;2023-08-06T08:32:18;0.00;;;0.00;;
28353;SDS011;15603;50.878;8.036;2023-08-06T08:34:45;0.98;;;0.20;;
28353;SDS011;15603;50.878;8.036;2023-08-06T08:37:12;0.10;;;0.10;;
28353;SDS011;15603;50.878;8.036;2023-08-06T08:39:40;0.65;;;0.10;;
28353;SDS011;15603;50.878;8.036;2023-08-06T08:42:07;0.20;;;0.10;;
28353;SDS011;15603;50.878;8.036;2023-08-06T08:44:36;0.08;;;0.08;;
28353;SDS011;15603;50.878;8.036;2023-08-06T08:47:06;1.15;;;0.20;;
28353;SDS011;15603;50.878;8.036;2023-08-06T08:49:35;1.35;;;0.30;;
28353;SDS011;15603;50.878;8.036;2023-08-06T08:52:03;0.55;;;0.10;;
28353;SDS011;15603;50.878;8.036;2023-08-06T08:54:38;0.30;;;0.20;;
28353;SDS011;15603;50.878;8.036;2023-08-06T08:57:06;1.48;;;0.50;;
28353;SDS011;15603;50.878;8.036;2023-08-06T08:59:33;0.47;;;0.28;;
28353;SDS011;15603;50.878;8.036;2023-08-06T09:02:01;1.23;;;0.20;;
28353;SDS011;15603;50.878;8.036;2023-08-06T09:04:29;0.20;;;0.10;;
28353;SDS011;15603;50.878;8.036;2023-08-06T09:07:00;0.10;;;0.10;;
28353;SDS011;15603;50.878;8.036;2023-08-06T09:09:30;0.20;;;0.15;;
28353;SDS011;15603;50.878;8.036;2023-08-06T09:12:00;0.25;;;0.13;;
28353;SDS011;15603;50.878;8.036;2023-08-06T09:14:29;0.10;;;0.10;;
28353;SDS011;15603;50.878;8.036;2023-08-06T09:16:56;0.22;;;0.10;;
28353;SDS011;15603;50.878;8.036;2023-08-06T09:19:24;0.65;;;0.28;;
28353;SDS011;15603;50.878;8.036;2023-08-06T09:21:53;0.43;;;0.28;;
28353;SDS011;15603;50.878;8.036;2023-08-06T09:24:22;0.55;;;0.20;;
28353;SDS011;15603;50.878;8.036;2023-08-06T09:26:49;2.10;;;0.47;;
28353;SDS011;15603;50.878;8.036;2023-08-06T09:29:17;1.70;;;0.20;;
28353;SDS011;15603;50.878;8.036;2023-08-06T09:31:47;0.10;;;0.10;;
28353;SDS011;15603;50.878;8.036;2023-08-06T09:34:16;0.55;;;0.20;;
28353;SDS011;15603;50.878;8.036;2023-08-06T09:36:54;0.10;;;0.10;;
28353;SDS011;15603;50.878;8.036;2023-08-06T09:39:27;0.82;;;0.30;;
28353;SDS011;15603;50.878;8.036;2023-08-06T09:41:56;1.00;;;0.65;;
28353;SDS011;15603;50.878;8.036;2023-08-06T09:44:25;0.57;;;0.30;;
28353;SDS011;15603;50.878;8.036;2023-08-06T09:46:54;1.00;;;0.10;;
28353;SDS011;15603;50.878;8.036;2023-08-06T09:49:26;1.13;;;0.30;;
28353;SDS011;15603;50.878;8.036;2023-08-06T09:51:54;0.80;;;0.40;;
28353;SDS011;15603;50.878;8.036;2023-08-06T09:54:25;0.70;;;0.20;;
28353;SDS011;15603;50.878;8.036;2023-08-06T09:56:54;0.22;;;0.22;;
28353;SDS011;15603;50.878;8.036;2023-08-06T09:59:25;0.20;;;0.20;;
28353;SDS011;15603;50.878;8.036;2023-08-06T10:01:53;1.92;;;0.20;;
28353;SDS011;15603;50.878;8.036;2023-08-06T10:04:22;0.20;;;0.20;;
28353;SDS011;15603;50.878;8.036;2023-08-06T10:06:53;0.20;;;0.20;;
28353;SDS011;15603;50.878;8.036;2023-08-06T10:09:21;1.27;;;0.30;;
28353;SDS011;15603;50.878;8.036;2023-08-06T10:11:50;1.17;;;0.40;;
28353;SDS011;15603;50.878;8.036;2023-08-06T10:14:28;0.15;;;0.13;;
28353;SDS011;15603;50.878;8.036;2023-08-06T10:16:59;0.65;;;0.30;;
28353;SDS011;15603;50.878;8.036;2023-08-06T10:19:28;0.85;;;0.40;;
28353;SDS011;15603;50.878;8.036;2023-08-06T10:22:09;0.45;;;0.40;;
28353;SDS011;15603;50.878;8.036;2023-08-06T10:24:46;0.90;;;0.30;;
28353;SDS011;15603;50.878;8.036;2023-08-06T10:27:35;0.30;;;0.30;;
28353;SDS011;15603;50.878;8.036;2023-08-06T10:32:55;0.20;;;0.17;;
28353;SDS011;15603;50.878;8.036;2023-08-06T10:35:50;0.63;;;0.38;;
28353;SDS011;15603;50.878;8.036;2023-08-06T10:38:18;0.38;;;0.35;;
28353;SDS011;15603;50.878;8.036;2023-08-06T10:43:26;0.40;;;0.20;;
28353;SDS011;15603;50.878;8.036;2023-08-06T10:45:54;1.33;;;0.40;;
28353;SDS011;15603;50.878;8.036;2023-08-06T10:48:35;0.82;;;0.30;;
28353;SDS011;15603;50.878;8.036;2023-08-06T10:51:08;0.35;;;0.28;;
28353;SDS011;15603;50.878;8.036;2023-08-06T10:53:37;0.30;;;0.30;;
28353;SDS011;15603;50.878;8.036;2023-08-06T10:56:18;0.22;;;0.22;;
28353;SDS011;15603;50.878;8.036;2023-08-06T10:58:50;0.43;;;0.30;;
28353;SDS011;15603;50.878;8.036;2023-08-06T11:01:21;0.28;;;0.28;;
28353;SDS011;15603;50.878;8.036;2023-08-06T11:03:49;1.45;;;0.45;;
28353;SDS011;15603;50.878;8.036;2023-08-06T11:06:18;0.30;;;0.30;;
28353;SDS011;15603;50.878;8.036;2023-08-06T11:08:49;0.20;;;0.17;;
28353;SDS011;15603;50.878;8.036;2023-08-06T11:11:18;0.22;;;0.22;;
28353;SDS011;15603;50.878;8.036;2023-08-06T11:13:46;0.52;;;0.30;;
28353;SDS011;15603;50.878;8.036;2023-08-06T11:16:21;0.57;;;0.22;;
28353;SDS011;15603;50.878;8.036;2023-08-06T11:18:53;1.95;;;0.20;;
28353;SDS011;15603;50.878;8.036;2023-08-06T11:21:21;0.20;;;0.20;;
28353;SDS011;15603;50.878;8.036;2023-08-06T11:23:51;0.20;;;0.20;;
28353;SDS011;15603;50.878;8.036;2023-08-06T11:26:19;0.68;;;0.60;;
28353;SDS011;15603;50.878;8.036;2023-08-06T11:28:47;0.50;;;0.50;;
28353;SDS011;15603;50.878;8.036;2023-08-06T11:31:20;0.77;;;0.63;;
28353;SDS011;15603;50.878;8.036;2023-08-06T11:33:52;0.52;;;0.50;;
28353;SDS011;15603;50.878;8.036;2023-08-06T11:36:29;0.52;;;0.52;;
28353;SDS011;15603;50.878;8.036;2023-08-06T11:39:00;0.50;;;0.50;;
28353;SDS011;15603;50.878;8.036;2023-08-06T11:41:29;0.35;;;0.35;;
28353;SDS011;15603;50.878;8.036;2023-08-06T11:43:57;0.70;;;0.50;;
28353;SDS011;15603;50.878;8.036;2023-08-06T11:46:25;0.70;;;0.50;;
28353;SDS011;15603;50.878;8.036;2023-08-06T11:48:54;2.00;;;0.70;;
28353;SDS011;15603;50.878;8.036;2023-08-06T11:51:22;0.55;;;0.50;;
28353;SDS011;15603;50.878;8.036;2023-08-06T11:53:58;0.35;;;0.35;;
28353;SDS011;15603;50.878;8.036;2023-08-06T11:56:26;0.50;;;0.50;;
28353;SDS011;15603;50.878;8.036;2023-08-06T11:58:54;1.38;;;0.55;;
28353;SDS011;15603;50.878;8.036;2023-08-06T12:01:22;1.85;;;0.50;;
28353;SDS011;15603;50.878;8.036;2023-08-06T12:03:49;0.57;;;0.57;;
28353;SDS011;15603;50.878;8.036;2023-08-06T12:06:17;1.02;;;0.90;;
28353;SDS011;15603;50.878;8.036;2023-08-06T12:08:44;0.55;;;0.30;;
28353;SDS011;15603;50.878;8.036;2023-08-06T12:11:11;0.68;;;0.28;;
28353;SDS011;15603;50.878;8.036;2023-08-06T12:13:38;0.50;;;0.50;;
28353;SDS011;15603;50.878;8.036;2023-08-06T12:16:05;1.67;;;0.40;;
28353;SDS011;15603;50.878;8.036;2023-08-06T12:18:32;2.08;;;0.30;;
28353;SDS011;15603;50.878;8.036;2023-08-06T12:20:59;0.75;;;0.20;;
28353;SDS011;15603;50.878;8.036;2023-08-06T12:23:27;0.38;;;0.20;;
28353;SDS011;15603;50.878;8.036;2023-08-06T12:25:54;2.85;;;0.15;;
28353;SDS011;15603;50.878;8.036;2023-08-06T12:28:21;1.35;;;0.10;;
28353;SDS011;15603;50.878;8.036;2023-08-06T12:30:50;1.10;;;0.10;;
28353;SDS011;15603;50.878;8.036;2023-08-06T12:33:18;0.45;;;0.10;;
28353;SDS011;15603;50.878;8.036;2023-08-06T12:35:45;0.10;;;0.10;;
28353;SDS011;15603;50.878;8.036;2023-08-06T12:38:12;0.08;;;0.08;;
28353;SDS011;15603;50.878;8.036;2023-08-06T12:40:40;0.70;;;0.10;;
28353;SDS011;15603;50.878;8.036;2023-08-06T12:43:09;1.10;;;0.10;;
28353;SDS011;15603;50.878;8.036;2023-08-06T12:45:37;2.47;;;0.10;;
28353;SDS011;15603;50.878;8.036;2023-08-06T12:48:04;0.30;;;0.10;;
28353;SDS011;15603;50.878;8.036;2023-08-06T12:50:31;1.25;;;0.10;;
28353;SDS011;15603;50.878;8.036;2023-08-06T12:53:00;1.85;;;0.10;;
28353;SDS011;15603;50.878;8.036;2023-08-06T12:55:27;0.10;;;0.10;;
28353;SDS011;15603;50.878;8.036;2023-08-06T12:57:59;0.20;;;0.10;;
28353;SDS011;15603;50.878;8.036;2023-08-06T13:00:26;0.52;;;0.30;;
28353;SDS011;15603;50.878;8.036;2023-08-06T13:02:54;0.40;;;0.20;;
28353;SDS011;15603;50.878;8.036;2023-08-06T13:05:21;0.10;;;0.10;;
28353;SDS011;15603;50.878;8.036;2023-08-06T13:07:48;0.10;;;0.10;;
28353;SDS011;15603;50.878;8.036;2023-08-06T13:10:15;0.30;;;0.10;;
28353;SDS011;15603;50.878;8.036;2023-08-06T13:12:43;0.65;;;0.25;;
28353;SDS011;15603;50.878;8.036;2023-08-06T13:15:10;0.20;;;0.20;;
28353;SDS011;15603;50.878;8.036;2023-08-06T13:17:37;0.73;;;0.30;;
28353;SDS011;15603;50.878;8.036;2023-08-06T13:20:05;1.75;;;0.30;;
28353;SDS011;15603;50.878;8.036;2023-08-06T13:22:33;0.40;;;0.22;;
28353;SDS011;15603;50.878;8.036;2023-08-06T13:25:00;0.40;;;0.30;;
28353;SDS011;15603;50.878;8.036;2023-08-06T13:27:27;1.45;;;0.40;;
28353;SDS011;15603;50.878;8.036;2023-08-06T13:29:54;2.22;;;0.55;;
28353;SDS011;15603;50.878;8.036;2023-08-06T13:32:21;0.40;;;0.25;;
28353;SDS011;15603;50.878;8.036;2023-08-06T13:34:48;0.55;;;0.50;;
28353;SDS011;15603;50.878;8.036;2023-08-06T13:37:16;0.10;;;0.10;;
28353;SDS011;15603;50.878;8.036;2023-08-06T13:39:43;1.08;;;0.43;;
28353;SDS011;15603;50.878;8.036;2023-08-06T13:42:10;1.10;;;0.43;;
28353;SDS011;15603;50.878;8.036;2023-08-06T13:44:37;0.22;;;0.20;;
28353;SDS011;15603;50.878;8.036;2023-08-06T13:47:04;0.47;;;0.38;;
28353;SDS011;15603;50.878;8.036;2023-08-06T13:49:31;1.25;;;0.30;;
28353;SDS011;15603;50.878;8.036;2023-08-06T13:51:59;0.55;;;0.43;;
28353;SDS011;15603;50.878;8.036;2023-08-06T13:54:46;2.00;;;0.45;;
28353;SDS011;15603;50.878;8.036;2023-08-06T13:57:13;1.38;;;0.30;;
28353;SDS011;15603;50.878;8.036;2023-08-06T13:59:40;1.35;;;0.35;;
28353;SDS011;15603;50.878;8.036;2023-08-06T14:02:10;0.20;;;0.20;;
28353;SDS011;15603;50.878;8.036;2023-08-06T14:04:38;0.88;;;0.35;;
28353;SDS011;15603;50.878;8.036;2023-08-06T14:07:06;0.80;;;0.25;;
28353;SDS011;15603;50.878;8.036;2023-08-06T14:09:33;0.28;;;0.28;;
28353;SDS011;15603;50.878;8.036;2023-08-06T14:12:01;0.10;;;0.10;;
28353;SDS011;15603;50.878;8.036;2023-08-06T14:14:29;1.15;;;0.28;;
28353;SDS011;15603;50.878;8.036;2023-08-06T14:16:57;0.98;;;0.28;;
28353;SDS011;15603;50.878;8.036;2023-08-06T14:19:25;0.25;;;0.25;;
28353;SDS011;15603;50.878;8.036;2023-08-06T14:21:52;0.52;;;0.35;;
28353;SDS011;15603;50.878;8.036;2023-08-06T14:24:19;2.40;;;0.45;;
28353;SDS011;15603;50.878;8.036;2023-08-06T14:26:47;2.05;;;0.30;;
28353;SDS011;15603;50.878;8.036;2023-08-06T14:29:14;2.05;;;0.47;;
28353;SDS011;15603;50.878;8.036;2023-08-06T14:31:41;0.20;;;0.20;;
28353;SDS011;15603;50.878;8.036;2023-08-06T14:34:08;0.40;;;0.40;;
28353;SDS011;15603;50.878;8.036;2023-08-06T14:36:35;1.23;;;0.40;;
28353;SDS011;15603;50.878;8.036;2023-08-06T14:39:02;4.03;;;0.73;;
28353;SDS011;15603;50.878;8.036;2023-08-06T14:41:29;0.50;;;0.43;;
28353;SDS011;15603;50.878;8.036;2023-08-06T14:43:56;2.28;;;0.55;;
28353;SDS011;15603;50.878;8.036;2023-08-06T14:46:23;0.40;;;0.40;;
28353;SDS011;15603;50.878;8.036;2023-08-06T14:48:52;1.08;;;0.50;;
28353;SDS011;15603;50.878;8.036;2023-08-06T14:51:19;1.00;;;0.50;;
28353;SDS011;15603;50.878;8.036;2023-08-06T14:53:47;4.35;;;0.75;;
28353;SDS011;15603;50.878;8.036;2023-08-06T14:56:14;2.05;;;0.60;;
28353;SDS011;15603;50.878;8.036;2023-08-06T14:58:41;1.80;;;0.47;;
28353;SDS011;15603;50.878;8.036;2023-08-06T15:01:08;2.78;;;0.85;;
28353;SDS011;15603;50.878;8.036;2023-08-06T15:03:36;1.20;;;0.70;;